sensor_id;sensor_type;location;lat;lon;timestamp;pressure;altitude;pressure_sealevel;temperature;humidity
8320;BME280;4197;42.130;24.746;2023-06-01T00:00:34;99573.13;;;17.30;100.00
8320;BME280;4197;42.130;24.746;2023-06-01T00:03:06;99576.25;;;17.25;100.00
8320;BME280;4197;42.130;24.746;2023-06-01T00:05:34;99566.88;;;17.19;100.00
8320;BME280;4197;42.130;24.746;2023-06-01T00:08:02;99578.25;;;17.13;100.00
8320;BME280;4197;42.130;24.746;2023-06-01T00:10:31;99577.88;;;17.08;100.00
8320;BME280;4197;42.130;24.746;2023-06-01T00:12:59;99572.78;;;17.06;100.00
8320;BME280;4197;42.130;24.746;2023-06-01T00:15:27;99576.28;;;17.07;100.00
8320;BME280;4197;42.130;24.746;2023-06-01T00:17:55;99574.34;;;17.07;100.00
8320;BME280;4197;42.130;24.746;2023-06-01T00:20:25;99572.00;;;17.13;100.00
8320;BME280;4197;42.130;24.746;2023-06-01T00:22:56;99566.50;;;17.16;100.00
8320;BME280;4197;42.130;24.746;2023-06-01T00:25:24;99571.59;;;17.11;100.00
8320;BME280;4197;42.130;24.746;2023-06-01T00:27:53;99571.19;;;17.09;100.00
8320;BME280;4197;42.130;24.746;2023-06-01T00:30:22;99572.38;;;17.08;100.00
8320;BME280;4197;42.130;24.746;2023-06-01T00:32:51;99576.31;;;17.03;100.00
8320;BME280;4197;42.130;24.746;2023-06-01T00:35:20;99575.94;;;16.87;100.00
8320;BME280;4197;42.130;24.746;2023-06-01T00:37:50;99570.06;;;16.88;100.00
8320;BME280;4197;42.130;24.746;2023-06-01T00:40:18;99569.69;;;16.93;100.00
8320;BME280;4197;42.130;24.746;2023-06-01T00:42:46;99571.25;;;16.91;100.00
8320;BME280;4197;42.130;24.746;2023-06-01T00:45:14;99571.25;;;16.84;100.00
8320;BME280;4197;42.130;24.746;2023-06-01T00:47:43;99573.22;;;16.83;100.00
8320;BME280;4197;42.130;24.746;2023-06-01T00:50:12;99576.34;;;16.78;100.00
8320;BME280;4197;42.130;24.746;2023-06-01T00:52:40;99575.94;;;16.69;100.00
8320;BME280;4197;42.130;24.746;2023-06-01T00:55:14;99575.13;;;16.65;100.00
8320;BME280;4197;42.130;24.746;2023-06-01T00:57:42;99569.69;;;16.68;100.00
8320;BME280;4197;42.130;24.746;2023-06-01T01:00:11;99579.44;;;16.66;100.00
8320;BME280;4197;42.130;24.746;2023-06-01T01:02:40;99576.69;;;16.62;100.00
8320;BME280;4197;42.130;24.746;2023-06-01T01:05:11;99579.03;;;16.57;100.00
8320;BME280;4197;42.130;24.746;2023-06-01T01:07:51;99584.50;;;16.42;100.00
8320;BME280;4197;42.130;24.746;2023-06-01T01:10:29;99595.47;;;16.39;100.00
8320;BME280;4197;42.130;24.746;2023-06-01T01:13:05;99596.22;;;16.32;100.00
8320;BME280;4197;42.130;24.746;2023-06-01T01:15:41;99595.44;;;16.28;100.00
8320;BME280;4197;42.130;24.746;2023-06-01T01:18:15;99591.13;;;16.20;100.00
8320;BME280;4197;42.130;24.746;2023-06-01T01:20:52;99594.66;;;16.20;100.00
8320;BME280;4197;42.130;24.746;2023-06-01T01:23:40;99583.31;;;16.11;100.00
8320;BME280;4197;42.130;24.746;2023-06-01T01:26:24;99582.53;;;16.11;100.00
8320;BME280;4197;42.130;24.746;2023-06-01T01:29:00;99589.94;;;16.06;100.00
8320;BME280;4197;42.130;24.746;2023-06-01T01:31:30;99589.16;;;16.02;100.00
8320;BME280;4197;42.130;24.746;2023-06-01T01:33:59;99582.50;;;16.07;100.00
8320;BME280;4197;42.130;24.746;2023-06-01T01:36:28;99583.69;;;16.02;100.00
8320;BME280;4197;42.130;24.746;2023-06-01T01:38:57;99585.59;;;15.98;100.00
8320;BME280;4197;42.130;24.746;2023-06-01T01:41:25;99584.81;;;15.98;100.00
8320;BME280;4197;42.130;24.746;2023-06-01T01:43:53;99586.00;;;16.00;100.00
8320;BME280;4197;42.130;24.746;2023-06-01T01:46:26;99589.53;;;15.97;100.00
8320;BME280;4197;42.130;24.746;2023-06-01T01:49:02;99584.06;;;15.94;100.00
8320;BME280;4197;42.130;24.746;2023-06-01T01:51:37;99589.91;;;15.92;100.00
8320;BME280;4197;42.130;24.746;2023-06-01T01:54:06;99587.16;;;15.92;100.00
8320;BME280;4197;42.130;24.746;2023-06-01T01:56:36;99599.66;;;15.86;100.00
8320;BME280;4197;42.130;24.746;2023-06-01T01:59:05;99598.91;;;15.96;100.00
8320;BME280;4197;42.130;24.746;2023-06-01T02:01:35;99599.25;;;15.88;100.00
8320;BME280;4197;42.130;24.746;2023-06-01T02:04:07;99607.84;;;15.82;100.00
8320;BME280;4197;42.130;24.746;2023-06-01T02:06:36;99604.28;;;15.75;100.00
8320;BME280;4197;42.130;24.746;2023-06-01T02:09:04;99598.06;;;15.74;100.00
8320;BME280;4197;42.130;24.746;2023-06-01T02:11:34;99607.03;;;15.78;100.00
8320;BME280;4197;42.130;24.746;2023-06-01T02:14:03;99602.34;;;15.79;100.00
8320;BME280;4197;42.130;24.746;2023-06-01T02:16:31;99603.16;;;15.83;100.00
8320;BME280;4197;42.130;24.746;2023-06-01T02:19:01;99609.00;;;15.85;100.00
8320;BME280;4197;42.130;24.746;2023-06-01T02:21:30;99608.59;;;15.79;100.00
8320;BME280;4197;42.130;24.746;2023-06-01T02:23:59;99604.69;;;15.77;100.00
8320;BME280;4197;42.130;24.746;2023-06-01T02:26:31;99603.88;;;15.73;100.00
8320;BME280;4197;42.130;24.746;2023-06-01T02:28:59;99606.22;;;15.71;100.00
8320;BME280;4197;42.130;24.746;2023-06-01T02:31:29;99605.44;;;15.74;100.00
8320;BME280;4197;42.130;24.746;2023-06-01T02:33:58;99606.19;;;15.67;100.00
8320;BME280;4197;42.130;24.746;2023-06-01T02:36:31;99599.94;;;15.67;100.00
8320;BME280;4197;42.130;24.746;2023-06-01T02:38:59;99611.59;;;15.60;100.00
8320;BME280;4197;42.130;24.746;2023-06-01T02:41:27;99600.66;;;15.53;100.00
8320;BME280;4197;42.130;24.746;2023-06-01T02:43:55;99604.53;;;15.52;100.00
8320;BME280;4197;42.130;24.746;2023-06-01T02:46:23;99601.78;;;15.48;100.00
8320;BME280;4197;42.130;24.746;2023-06-01T02:48:52;99604.53;;;15.52;100.00
8320;BME280;4197;42.130;24.746;2023-06-01T02:51:20;99610.00;;;15.52;100.00
8320;BME280;4197;42.130;24.746;2023-06-01T02:53:50;99606.47;;;15.44;100.00
8320;BME280;4197;42.130;24.746;2023-06-01T02:56:18;99604.94;;;15.50;100.00
8320;BME280;4197;42.130;24.746;2023-06-01T02:58:46;99605.34;;;15.52;100.00
8320;BME280;4197;42.130;24.746;2023-06-01T03:01:14;99604.53;;;15.48;100.00
8320;BME280;4197;42.130;24.746;2023-06-01T03:03:42;99607.66;;;15.47;100.00
8320;BME280;4197;42.130;24.746;2023-06-01T03:06:11;99605.28;;;15.45;100.00
8320;BME280;4197;42.130;24.746;2023-06-01T03:08:40;99602.97;;;15.47;100.00
8320;BME280;4197;42.130;24.746;2023-06-01T03:11:09;99605.72;;;15.54;100.00
8320;BME280;4197;42.130;24.746;2023-06-01T03:13:37;99609.69;;;15.64;100.00
8320;BME280;4197;42.130;24.746;2023-06-01T03:16:06;99603.94;;;15.80;100.00
8320;BME280;4197;42.130;24.746;2023-06-01T03:18:34;99607.84;;;15.86;100.00
8320;BME280;4197;42.130;24.746;2023-06-01T03:21:05;99612.56;;;15.93;100.00
8320;BME280;4197;42.130;24.746;2023-06-01T03:23:33;99623.91;;;15.95;100.00
8320;BME280;4197;42.130;24.746;2023-06-01T03:26:01;99624.31;;;16.04;100.00
8320;BME280;4197;42.130;24.746;2023-06-01T03:28:32;99634.91;;;16.23;100.00
8320;BME280;4197;42.130;24.746;2023-06-01T03:31:00;99631.03;;;16.35;100.00
8320;BME280;4197;42.130;24.746;2023-06-01T03:33:29;99627.16;;;16.43;100.00
8320;BME280;4197;42.130;24.746;2023-06-01T03:35:57;99632.63;;;16.54;100.00
8320;BME280;4197;42.130;24.746;2023-06-01T03:38:26;99625.97;;;16.59;100.00
8320;BME280;4197;42.130;24.746;2023-06-01T03:40:54;99631.06;;;16.71;100.00
8320;BME280;4197;42.130;24.746;2023-06-01T03:43:22;99635.78;;;16.67;100.00
8320;BME280;4197;42.130;24.746;2023-06-01T03:45:51;99638.53;;;16.74;100.00
8320;BME280;4197;42.130;24.746;2023-06-01T03:48:20;99635.41;;;16.90;100.00
8320;BME280;4197;42.130;24.746;2023-06-01T03:50:48;99639.31;;;17.07;100.00
8320;BME280;4197;42.130;24.746;2023-06-01T03:53:16;99634.97;;;17.20;100.00
8320;BME280;4197;42.130;24.746;2023-06-01T03:55:44;99642.38;;;17.37;100.00
8320;BME280;4197;42.130;24.746;2023-06-01T03:58:15;99637.69;;;17.45;100.00
8320;BME280;4197;42.130;24.746;2023-06-01T04:00:46;99644.69;;;17.53;100.00
8320;BME280;4197;42.130;24.746;2023-06-01T04:03:15;99640.75;;;17.61;100.00
8320;BME280;4197;42.130;24.746;2023-06-01T04:05:48;99645.44;;;17.65;100.00
8320;BME280;4197;42.130;24.746;2023-06-01T04:08:18;99641.50;;;17.73;100.00
8320;BME280;4197;42.130;24.746;2023-06-01T04:10:48;99643.84;;;17.89;100.00
8320;BME280;4197;42.130;24.746;2023-06-01T04:13:16;99646.16;;;17.90;100.00
8320;BME280;4197;42.130;24.746;2023-06-01T04:15:45;99646.94;;;17.94;100.00
8320;BME280;4197;42.130;24.746;2023-06-01T04:18:15;99641.38;;;18.09;100.00
8320;BME280;4197;42.130;24.746;2023-06-01T04:20:44;99640.59;;;18.08;100.00
8320;BME280;4197;42.130;24.746;2023-06-01T04:23:15;99641.31;;;18.23;100.00
8320;BME280;4197;42.130;24.746;2023-06-01T04:25:43;99649.44;;;18.41;100.00
8320;BME280;4197;42.130;24.746;2023-06-01T04:28:11;99654.97;;;18.34;100.00
8320;BME280;4197;42.130;24.746;2023-06-01T04:30:41;99648.72;;;18.33;100.00
8320;BME280;4197;42.130;24.746;2023-06-01T04:33:11;99656.75;;;18.65;100.00
8320;BME280;4197;42.130;24.746;2023-06-01T04:35:40;99648.94;;;18.60;100.00
8320;BME280;4197;42.130;24.746;2023-06-01T04:38:11;99656.75;;;18.62;100.00
8320;BME280;4197;42.130;24.746;2023-06-01T04:40:39;99658.16;;;18.88;100.00
8320;BME280;4197;42.130;24.746;2023-06-01T04:43:08;99663.44;;;19.13;100.00
8320;BME280;4197;42.130;24.746;2023-06-01T04:45:38;99669.28;;;19.19;100.00
8320;BME280;4197;42.130;24.746;2023-06-01T04:48:07;99664.22;;;19.13;100.00
8320;BME280;4197;42.130;24.746;2023-06-01T04:50:36;99657.63;;;19.45;100.00
8320;BME280;4197;42.130;24.746;2023-06-01T04:53:05;99665.38;;;19.57;99.16
8320;BME280;4197;42.130;24.746;2023-06-01T04:55:34;99663.03;;;19.56;100.00
8320;BME280;4197;42.130;24.746;2023-06-01T04:58:02;99662.13;;;20.00;96.94
8320;BME280;4197;42.130;24.746;2023-06-01T05:00:32;99663.84;;;20.21;94.91
8320;BME280;4197;42.130;24.746;2023-06-01T05:03:01;99666.56;;;20.52;91.37
8320;BME280;4197;42.130;24.746;2023-06-01T05:05:30;99672.75;;;20.87;87.84
8320;BME280;4197;42.130;24.746;2023-06-01T05:07:59;99670.91;;;21.04;85.57
8320;BME280;4197;42.130;24.746;2023-06-01T05:10:30;99666.41;;;21.13;85.40
8320;BME280;4197;42.130;24.746;2023-06-01T05:12:58;99671.03;;;21.20;84.11
8320;BME280;4197;42.130;24.746;2023-06-01T05:15:26;99677.84;;;21.35;83.24
8320;BME280;4197;42.130;24.746;2023-06-01T05:17:55;99675.19;;;21.28;83.33
8320;BME280;4197;42.130;24.746;2023-06-01T05:20:24;99676.03;;;21.25;85.10
8320;BME280;4197;42.130;24.746;2023-06-01T05:22:53;99670.59;;;21.45;82.23
8320;BME280;4197;42.130;24.746;2023-06-01T05:25:21;99671.56;;;21.78;79.23
8320;BME280;4197;42.130;24.746;2023-06-01T05:27:51;99678.19;;;22.01;77.93
8320;BME280;4197;42.130;24.746;2023-06-01T05:30:19;99675.75;;;22.03;78.89
8320;BME280;4197;42.130;24.746;2023-06-01T05:32:47;99677.25;;;22.27;76.93
8320;BME280;4197;42.130;24.746;2023-06-01T05:35:16;99675.88;;;22.36;76.27
8320;BME280;4197;42.130;24.746;2023-06-01T05:37:44;99678.06;;;22.44;73.82
8320;BME280;4197;42.130;24.746;2023-06-01T05:40:13;99681.09;;;22.50;71.88
8320;BME280;4197;42.130;24.746;2023-06-01T05:42:41;99675.31;;;22.61;71.41
8320;BME280;4197;42.130;24.746;2023-06-01T05:45:11;99678.31;;;22.50;72.37
8320;BME280;4197;42.130;24.746;2023-06-01T05:47:39;99674.31;;;22.71;71.71
8320;BME280;4197;42.130;24.746;2023-06-01T05:50:08;99678.03;;;22.64;71.36
8320;BME280;4197;42.130;24.746;2023-06-01T05:52:38;99673.03;;;22.76;70.98
8320;BME280;4197;42.130;24.746;2023-06-01T05:55:09;99670.59;;;22.94;69.07
8320;BME280;4197;42.130;24.746;2023-06-01T05:57:37;99673.19;;;22.85;70.83
8320;BME280;4197;42.130;24.746;2023-06-01T06:00:07;99670.50;;;22.65;71.31
8320;BME280;4197;42.130;24.746;2023-06-01T06:02:38;99672.50;;;22.64;71.59
8320;BME280;4197;42.130;24.746;2023-06-01T06:05:09;99675.94;;;22.85;70.88
8320;BME280;4197;42.130;24.746;2023-06-01T06:07:37;99676.06;;;22.98;69.79
8320;BME280;4197;42.130;24.746;2023-06-01T06:10:07;99672.41;;;22.84;70.48
8320;BME280;4197;42.130;24.746;2023-06-01T06:12:36;99673.31;;;22.98;70.25
8320;BME280;4197;42.130;24.746;2023-06-01T06:15:09;99666.38;;;22.89;69.28
8320;BME280;4197;42.130;24.746;2023-06-01T06:17:39;99662.28;;;22.94;69.89
8320;BME280;4197;42.130;24.746;2023-06-01T06:20:08;99668.91;;;23.00;68.69
8320;BME280;4197;42.130;24.746;2023-06-01T06:22:38;99676.31;;;22.87;68.14
8320;BME280;4197;42.130;24.746;2023-06-01T06:25:07;99668.34;;;22.89;67.46
8320;BME280;4197;42.130;24.746;2023-06-01T06:27:36;99667.31;;;22.83;70.19
8320;BME280;4197;42.130;24.746;2023-06-01T06:30:06;99676.66;;;22.73;70.53
8320;BME280;4197;42.130;24.746;2023-06-01T06:32:34;99671.13;;;22.73;70.76
8320;BME280;4197;42.130;24.746;2023-06-01T06:35:04;99676.81;;;22.82;70.18
8320;BME280;4197;42.130;24.746;2023-06-01T06:37:32;99672.16;;;22.79;70.50
8320;BME280;4197;42.130;24.746;2023-06-01T06:40:01;99664.13;;;22.84;71.67
8320;BME280;4197;42.130;24.746;2023-06-01T06:42:30;99670.59;;;22.94;69.43
8320;BME280;4197;42.130;24.746;2023-06-01T06:44:58;99672.41;;;22.84;70.48
8320;BME280;4197;42.130;24.746;2023-06-01T06:47:26;99668.00;;;22.87;71.13
8320;BME280;4197;42.130;24.746;2023-06-01T06:49:55;99673.44;;;22.74;72.03
8320;BME280;4197;42.130;24.746;2023-06-01T06:52:25;99667.97;;;22.54;73.78
8320;BME280;4197;42.130;24.746;2023-06-01T06:54:55;99665.56;;;22.40;75.30
8320;BME280;4197;42.130;24.746;2023-06-01T06:57:23;99667.09;;;22.41;75.12
8320;BME280;4197;42.130;24.746;2023-06-01T06:59:52;99666.75;;;22.55;73.84
8320;BME280;4197;42.130;24.746;2023-06-01T07:02:20;99670.03;;;22.50;72.53
8320;BME280;4197;42.130;24.746;2023-06-01T07:04:48;99664.97;;;22.65;72.30
8320;BME280;4197;42.130;24.746;2023-06-01T07:07:16;99667.81;;;22.78;71.72
8320;BME280;4197;42.130;24.746;2023-06-01T07:09:46;99662.25;;;22.98;71.17
8320;BME280;4197;42.130;24.746;2023-06-01T07:12:15;99664.81;;;23.05;70.42
8320;BME280;4197;42.130;24.746;2023-06-01T07:14:43;99657.28;;;22.89;69.30
8320;BME280;4197;42.130;24.746;2023-06-01T07:17:11;99658.41;;;22.91;71.16
8320;BME280;4197;42.130;24.746;2023-06-01T07:19:41;99648.22;;;23.05;70.43
8320;BME280;4197;42.130;24.746;2023-06-01T07:22:10;99650.56;;;23.06;69.72
8320;BME280;4197;42.130;24.746;2023-06-01T07:24:39;99652.00;;;23.11;69.55
8320;BME280;4197;42.130;24.746;2023-06-01T07:27:09;99644.84;;;23.13;70.71
8320;BME280;4197;42.130;24.746;2023-06-01T07:29:37;99643.63;;;23.31;70.25
8320;BME280;4197;42.130;24.746;2023-06-01T07:32:06;99652.19;;;23.49;70.69
8320;BME280;4197;42.130;24.746;2023-06-01T07:34:35;99649.81;;;23.64;69.02
8320;BME280;4197;42.130;24.746;2023-06-01T07:37:06;99652.75;;;23.73;67.13
8320;BME280;4197;42.130;24.746;2023-06-01T07:39:44;99649.75;;;23.80;65.64
8320;BME280;4197;42.130;24.746;2023-06-01T07:42:14;99645.56;;;23.76;66.91
8320;BME280;4197;42.130;24.746;2023-06-01T07:44:43;99641.91;;;23.79;65.60
8320;BME280;4197;42.130;24.746;2023-06-01T07:47:11;99630.69;;;23.70;66.30
8320;BME280;4197;42.130;24.746;2023-06-01T07:49:39;99634.66;;;23.69;66.00
8320;BME280;4197;42.130;24.746;2023-06-01T07:52:08;99633.09;;;23.68;67.03
8320;BME280;4197;42.130;24.746;2023-06-01T07:54:36;99627.34;;;23.62;65.31
8320;BME280;4197;42.130;24.746;2023-06-01T07:57:07;99632.81;;;23.49;65.16
8320;BME280;4197;42.130;24.746;2023-06-01T07:59:37;99621.75;;;23.49;65.88
8320;BME280;4197;42.130;24.746;2023-06-01T08:02:06;99628.28;;;23.55;66.15
8320;BME280;4197;42.130;24.746;2023-06-01T08:04:34;99630.44;;;23.64;65.67
8320;BME280;4197;42.130;24.746;2023-06-01T08:07:05;99627.50;;;23.71;66.27
8320;BME280;4197;42.130;24.746;2023-06-01T08:09:35;99617.06;;;23.33;66.64
8320;BME280;4197;42.130;24.746;2023-06-01T08:12:05;99624.16;;;23.47;69.93
8320;BME280;4197;42.130;24.746;2023-06-01T08:14:34;99621.75;;;23.78;64.70
8320;BME280;4197;42.130;24.746;2023-06-01T08:17:04;99614.56;;;23.81;64.69
8320;BME280;4197;42.130;24.746;2023-06-01T08:19:34;99619.00;;;23.78;66.40
8320;BME280;4197;42.130;24.746;2023-06-01T08:22:03;99613.69;;;23.84;65.13
8320;BME280;4197;42.130;24.746;2023-06-01T08:24:34;99621.22;;;23.96;64.77
8320;BME280;4197;42.130;24.746;2023-06-01T08:27:18;99615.03;;;23.92;64.97
8320;BME280;4197;42.130;24.746;2023-06-01T08:29:50;99617.38;;;24.07;67.50
8320;BME280;4197;42.130;24.746;2023-06-01T08:32:22;99619.59;;;24.24;65.07
8320;BME280;4197;42.130;24.746;2023-06-01T08:34:51;99614.94;;;24.47;66.02
8320;BME280;4197;42.130;24.746;2023-06-01T08:37:19;99623.59;;;24.49;62.69
8320;BME280;4197;42.130;24.746;2023-06-01T08:39:48;99620.06;;;24.48;63.12
8320;BME280;4197;42.130;24.746;2023-06-01T08:42:20;99618.38;;;24.38;61.67
8320;BME280;4197;42.130;24.746;2023-06-01T08:44:53;99620.38;;;24.25;62.62
8320;BME280;4197;42.130;24.746;2023-06-01T08:47:24;99611.28;;;24.12;62.91
8320;BME280;4197;42.130;24.746;2023-06-01T08:49:53;99615.16;;;24.27;63.59
8320;BME280;4197;42.130;24.746;2023-06-01T08:52:25;99608.38;;;24.02;59.77
8320;BME280;4197;42.130;24.746;2023-06-01T08:54:56;99609.59;;;24.01;60.41
8320;BME280;4197;42.130;24.746;2023-06-01T08:57:26;99605.06;;;24.20;58.06
8320;BME280;4197;42.130;24.746;2023-06-01T08:59:55;99598.44;;;24.31;58.93
8320;BME280;4197;42.130;24.746;2023-06-01T09:02:25;99594.09;;;24.42;59.16
8320;BME280;4197;42.130;24.746;2023-06-01T09:04:54;99591.66;;;24.32;58.95
8320;BME280;4197;42.130;24.746;2023-06-01T09:07:22;99585.34;;;24.57;58.20
8320;BME280;4197;42.130;24.746;2023-06-01T09:09:51;99584.44;;;24.60;59.05
8320;BME280;4197;42.130;24.746;2023-06-01T09:12:21;99572.78;;;24.78;57.67
8320;BME280;4197;42.130;24.746;2023-06-01T09:15:07;99581.81;;;24.91;56.49
8320;BME280;4197;42.130;24.746;2023-06-01T09:17:38;99574.69;;;24.68;55.80
8320;BME280;4197;42.130;24.746;2023-06-01T09:20:11;99571.97;;;24.77;55.57
8320;BME280;4197;42.130;24.746;2023-06-01T09:22:43;99579.78;;;24.69;53.57
8320;BME280;4197;42.130;24.746;2023-06-01T09:25:13;99574.69;;;24.68;57.15
8320;BME280;4197;42.130;24.746;2023-06-01T09:27:44;99573.56;;;24.78;54.90
8320;BME280;4197;42.130;24.746;2023-06-01T09:30:13;99563.66;;;24.77;52.66
8320;BME280;4197;42.130;24.746;2023-06-01T09:32:44;99563.97;;;24.92;52.97
8320;BME280;4197;42.130;24.746;2023-06-01T09:35:36;99562.06;;;25.24;52.31
8320;BME280;4197;42.130;24.746;2023-06-01T09:38:05;99565.38;;;25.31;52.75
8320;BME280;4197;42.130;24.746;2023-06-01T09:40:34;99559.22;;;25.58;52.61
8320;BME280;4197;42.130;24.746;2023-06-01T09:43:02;99559.28;;;25.46;52.56
8320;BME280;4197;42.130;24.746;2023-06-01T09:45:30;99555.28;;;25.47;54.64
8320;BME280;4197;42.130;24.746;2023-06-01T09:48:16;99559.28;;;25.46;50.34
8320;BME280;4197;42.130;24.746;2023-06-01T09:50:45;99560.41;;;25.26;45.95
8320;BME280;4197;42.130;24.746;2023-06-01T09:53:13;99557.59;;;25.04;47.19
8320;BME280;4197;42.130;24.746;2023-06-01T09:56:06;99548.13;;;24.80;47.69
8320;BME280;4197;42.130;24.746;2023-06-01T09:58:34;99552.00;;;24.82;47.39
8320;BME280;4197;42.130;24.746;2023-06-01T10:01:09;99542.41;;;24.96;46.42
8320;BME280;4197;42.130;24.746;2023-06-01T10:03:41;99537.47;;;25.35;45.13
8320;BME280;4197;42.130;24.746;2023-06-01T10:06:11;99550.16;;;25.36;46.26
8320;BME280;4197;42.130;24.746;2023-06-01T10:08:41;99542.44;;;25.40;47.77
8320;BME280;4197;42.130;24.746;2023-06-01T10:11:09;99541.81;;;25.36;46.62
8320;BME280;4197;42.130;24.746;2023-06-01T10:13:38;99536.47;;;25.42;48.30
8320;BME280;4197;42.130;24.746;2023-06-01T10:16:07;99527.47;;;25.37;49.18
8320;BME280;4197;42.130;24.746;2023-06-01T10:18:36;99530.75;;;25.67;48.42
8320;BME280;4197;42.130;24.746;2023-06-01T10:21:07;99529.50;;;25.99;48.30
8320;BME280;4197;42.130;24.746;2023-06-01T10:23:36;99529.41;;;26.21;46.27
8320;BME280;4197;42.130;24.746;2023-06-01T10:26:09;99527.69;;;26.06;45.72
8320;BME280;4197;42.130;24.746;2023-06-01T10:28:39;99519.63;;;25.98;47.06
8320;BME280;4197;42.130;24.746;2023-06-01T10:31:36;99512.75;;;26.21;46.95
8320;BME280;4197;42.130;24.746;2023-06-01T10:34:06;99512.31;;;26.32;42.94
8320;BME280;4197;42.130;24.746;2023-06-01T10:37:15;99517.59;;;25.90;42.45
8320;BME280;4197;42.130;24.746;2023-06-01T10:39:44;99504.31;;;25.94;42.42
8320;BME280;4197;42.130;24.746;2023-06-01T10:42:35;99500.53;;;26.10;41.59
8320;BME280;4197;42.130;24.746;2023-06-01T10:45:37;99496.19;;;26.09;42.91
8320;BME280;4197;42.130;24.746;2023-06-01T10:48:08;99495.88;;;26.07;42.29
8320;BME280;4197;42.130;24.746;2023-06-01T10:50:38;99483.84;;;26.10;42.08
8320;BME280;4197;42.130;24.746;2023-06-01T10:53:28;99490.38;;;26.25;42.38
8320;BME280;4197;42.130;24.746;2023-06-01T10:56:19;99475.06;;;26.20;42.35
8320;BME280;4197;42.130;24.746;2023-06-01T10:59:11;99470.00;;;26.37;42.52
8320;BME280;4197;42.130;24.746;2023-06-01T11:01:46;99462.78;;;26.67;40.11
8320;BME280;4197;42.130;24.746;2023-06-01T11:04:15;99468.19;;;26.89;40.60
8320;BME280;4197;42.130;24.746;2023-06-01T11:06:43;99458.75;;;26.87;39.83
8320;BME280;4197;42.130;24.746;2023-06-01T11:09:13;99465.97;;;26.29;39.22
8320;BME280;4197;42.130;24.746;2023-06-01T11:12:01;99461.88;;;25.93;40.43
8320;BME280;4197;42.130;24.746;2023-06-01T11:14:30;99465.16;;;26.10;38.56
8320;BME280;4197;42.130;24.746;2023-06-01T11:17:30;99465.03;;;26.32;41.27
8320;BME280;4197;42.130;24.746;2023-06-01T11:20:01;99459.84;;;26.71;40.29
8320;BME280;4197;42.130;24.746;2023-06-01T11:22:38;99442.22;;;26.74;39.28
8320;BME280;4197;42.130;24.746;2023-06-01T11:25:11;99437.00;;;26.67;37.60
8320;BME280;4197;42.130;24.746;2023-06-01T11:27:44;99430.03;;;26.81;39.42
8320;BME280;4197;42.130;24.746;2023-06-01T11:30:18;99437.09;;;27.00;39.28
8320;BME280;4197;42.130;24.746;2023-06-01T11:32:48;99432.63;;;26.93;38.17
8320;BME280;4197;42.130;24.746;2023-06-01T11:35:19;99429.72;;;26.60;38.72
8320;BME280;4197;42.130;24.746;2023-06-01T11:37:54;99421.97;;;26.28;37.60
8320;BME280;4197;42.130;24.746;2023-06-01T11:40:24;99420.41;;;26.26;37.53
8320;BME280;4197;42.130;24.746;2023-06-01T11:42:58;99409.78;;;26.34;38.13
8320;BME280;4197;42.130;24.746;2023-06-01T11:45:26;99407.47;;;26.51;37.24
8320;BME280;4197;42.130;24.746;2023-06-01T11:47:55;99396.66;;;26.44;38.17
8320;BME280;4197;42.130;24.746;2023-06-01T11:50:24;99385.09;;;26.64;39.57
8320;BME280;4197;42.130;24.746;2023-06-01T11:52:54;99388.88;;;26.94;39.57
8320;BME280;4197;42.130;24.746;2023-06-01T11:55:25;99392.28;;;26.98;39.67
8320;BME280;4197;42.130;24.746;2023-06-01T11:57:53;99387.59;;;27.23;38.78
8320;BME280;4197;42.130;24.746;2023-06-01T12:00:22;99375.38;;;27.11;37.98
8320;BME280;4197;42.130;24.746;2023-06-01T12:03:04;99382.91;;;27.29;36.22
8320;BME280;4197;42.130;24.746;2023-06-01T12:05:39;99370.63;;;27.45;35.34
8320;BME280;4197;42.130;24.746;2023-06-01T12:08:13;99369.31;;;27.31;35.34
8320;BME280;4197;42.130;24.746;2023-06-01T12:10:44;99368.94;;;26.96;36.84
8320;BME280;4197;42.130;24.746;2023-06-01T12:13:14;99357.59;;;27.18;37.38
8320;BME280;4197;42.130;24.746;2023-06-01T12:15:42;99356.09;;;26.98;34.66
8320;BME280;4197;42.130;24.746;2023-06-01T12:18:11;99353.88;;;26.51;35.16
8320;BME280;4197;42.130;24.746;2023-06-01T12:20:41;99341.03;;;26.35;34.85
8320;BME280;4197;42.130;24.746;2023-06-01T12:23:14;99342.28;;;26.34;35.24
8320;BME280;4197;42.130;24.746;2023-06-01T12:25:51;99343.84;;;26.53;36.35
8320;BME280;4197;42.130;24.746;2023-06-01T12:28:20;99336.81;;;26.85;35.68
8320;BME280;4197;42.130;24.746;2023-06-01T12:30:49;99334.91;;;27.01;36.13
8320;BME280;4197;42.130;24.746;2023-06-01T12:33:31;99337.66;;;27.10;35.70
8320;BME280;4197;42.130;24.746;2023-06-01T12:36:00;99337.44;;;27.32;35.26
8320;BME280;4197;42.130;24.746;2023-06-01T12:38:34;99348.94;;;27.25;33.87
8320;BME280;4197;42.130;24.746;2023-06-01T12:41:09;99340.69;;;26.79;34.99
8320;BME280;4197;42.130;24.746;2023-06-01T12:43:39;99333.47;;;26.63;35.43
8320;BME280;4197;42.130;24.746;2023-06-01T12:46:17;99335.47;;;26.62;35.06
8320;BME280;4197;42.130;24.746;2023-06-01T12:48:46;99335.16;;;26.33;34.23
8320;BME280;4197;42.130;24.746;2023-06-01T12:51:15;99336.25;;;26.54;35.14
8320;BME280;4197;42.130;24.746;2023-06-01T12:53:43;99336.38;;;26.78;35.27
8320;BME280;4197;42.130;24.746;2023-06-01T12:56:13;99342.91;;;26.56;34.23
8320;BME280;4197;42.130;24.746;2023-06-01T12:58:42;99336.72;;;26.61;35.40
8320;BME280;4197;42.130;24.746;2023-06-01T13:01:10;99349.63;;;26.92;35.88
8320;BME280;4197;42.130;24.746;2023-06-01T13:03:39;99348.69;;;26.95;34.06
8320;BME280;4197;42.130;24.746;2023-06-01T13:06:07;99337.31;;;26.65;35.18
8320;BME280;4197;42.130;24.746;2023-06-01T13:08:36;99337.56;;;26.95;35.95
8320;BME280;4197;42.130;24.746;2023-06-01T13:11:06;99331.16;;;27.22;35.15
8320;BME280;4197;42.130;24.746;2023-06-01T13:13:40;99334.78;;;27.38;34.01
8320;BME280;4197;42.130;24.746;2023-06-01T13:16:11;99328.38;;;27.46;34.55
8320;BME280;4197;42.130;24.746;2023-06-01T13:18:39;99337.78;;;27.58;34.37
8320;BME280;4197;42.130;24.746;2023-06-01T13:21:07;99332.41;;;27.45;35.02
8320;BME280;4197;42.130;24.746;2023-06-01T13:23:36;99325.38;;;27.59;35.66
8320;BME280;4197;42.130;24.746;2023-06-01T13:26:05;99332.06;;;27.76;34.62